sensor_id;sensor_type;location;lat;lon;timestamp;pressure;altitude;pressure_sealevel;temperature;humidity
66681;BME280;53575;51.366;12.350;2023-05-12T00:01:39;100281.84;;;14.17;70.94
66681;BME280;53575;51.366;12.350;2023-05-12T00:04:04;100280.75;;;14.27;73.09
66681;BME280;53575;51.366;12.350;2023-05-12T00:06:30;100282.97;;;14.47;70.18
66681;BME280;53575;51.366;12.350;2023-05-12T00:08:56;100287.41;;;14.43;71.05
66681;BME280;53575;51.366;12.350;2023-05-12T00:11:21;100277.00;;;14.38;71.37
66681;BME280;53575;51.366;12.350;2023-05-12T00:13:47;100273.72;;;14.29;72.70
66681;BME280;53575;51.366;12.350;2023-05-12T00:16:12;100278.16;;;14.25;73.49
66681;BME280;53575;51.366;12.350;2023-05-12T00:18:39;100270.34;;;14.22;72.86
66681;BME280;53575;51.366;12.350;2023-05-12T00:21:05;100278.22;;;14.22;71.81
66681;BME280;53575;51.366;12.350;2023-05-12T00:23:32;100274.84;;;14.17;75.32
66681;BME280;53575;51.366;12.350;2023-05-12T00:25:58;100280.16;;;14.14;73.63
66681;BME280;53575;51.366;12.350;2023-05-12T00:28:23;100274.78;;;14.19;74.58
66681;BME280;53575;51.366;12.350;2023-05-12T00:30:49;100266.03;;;14.20;76.98
66681;BME280;53575;51.366;12.350;2023-05-12T00:33:14;100277.34;;;14.23;73.10
66681;BME280;53575;51.366;12.350;2023-05-12T00:35:41;100281.72;;;14.23;73.92
66681;BME280;53575;51.366;12.350;2023-05-12T00:38:06;100299.13;;;14.27;72.37
66681;BME280;53575;51.366;12.350;2023-05-12T00:40:32;100304.44;;;14.25;71.81
66681;BME280;53575;51.366;12.350;2023-05-12T00:42:57;100296.50;;;14.27;72.31
66681;BME280;53575;51.366;12.350;2023-05-12T00:45:23;100301.97;;;14.18;72.06
66681;BME280;53575;51.366;12.350;2023-05-12T00:47:50;100312.56;;;14.14;73.28
66681;BME280;53575;51.366;12.350;2023-05-12T00:50:16;100305.63;;;14.12;73.95
66681;BME280;53575;51.366;12.350;2023-05-12T00:52:42;100296.78;;;14.14;73.58
66681;BME280;53575;51.366;12.350;2023-05-12T00:55:08;100290.44;;;14.25;72.83
66681;BME280;53575;51.366;12.350;2023-05-12T00:57:34;100308.16;;;14.17;71.90
66681;BME280;53575;51.366;12.350;2023-05-12T00:59:59;100311.69;;;14.14;72.80
66681;BME280;53575;51.366;12.350;2023-05-12T01:02:25;100304.66;;;14.14;71.82
66681;BME280;53575;51.366;12.350;2023-05-12T01:04:50;100305.69;;;14.09;71.62
66681;BME280;53575;51.366;12.350;2023-05-12T01:07:24;100290.66;;;14.14;72.37
66681;BME280;53575;51.366;12.350;2023-05-12T01:09:54;100292.66;;;14.03;72.90
66681;BME280;53575;51.366;12.350;2023-05-12T01:12:21;100291.19;;;13.88;73.91
66681;BME280;53575;51.366;12.350;2023-05-12T01:14:47;100294.78;;;13.84;73.98
66681;BME280;53575;51.366;12.350;2023-05-12T01:17:13;100302.13;;;14.10;75.32
66681;BME280;53575;51.366;12.350;2023-05-12T01:20:07;100298.91;;;13.97;77.34
66681;BME280;53575;51.366;12.350;2023-05-12T01:22:34;100293.88;;;13.86;77.24
66681;BME280;53575;51.366;12.350;2023-05-12T01:25:06;100294.78;;;13.85;77.61
66681;BME280;53575;51.366;12.350;2023-05-12T01:27:33;100301.00;;;13.80;78.21
66681;BME280;53575;51.366;12.350;2023-05-12T01:30:03;100301.00;;;13.80;76.19
66681;BME280;53575;51.366;12.350;2023-05-12T01:32:29;100301.19;;;13.69;76.78
66681;BME280;53575;51.366;12.350;2023-05-12T01:34:54;100295.94;;;13.69;76.66
66681;BME280;53575;51.366;12.350;2023-05-12T01:37:20;100292.94;;;13.89;77.41
66681;BME280;53575;51.366;12.350;2023-05-12T01:39:45;100293.91;;;13.83;75.37
66681;BME280;53575;51.366;12.350;2023-05-12T01:42:10;100294.22;;;13.68;76.12
66681;BME280;53575;51.366;12.350;2023-05-12T01:44:36;100292.25;;;13.79;79.35
66681;BME280;53575;51.366;12.350;2023-05-12T01:47:01;100294.84;;;13.81;79.10
66681;BME280;53575;51.366;12.350;2023-05-12T01:49:27;100305.22;;;13.87;77.46
66681;BME280;53575;51.366;12.350;2023-05-12T01:51:52;100301.03;;;13.78;77.19
66681;BME280;53575;51.366;12.350;2023-05-12T01:54:18;100308.34;;;13.62;77.71
66681;BME280;53575;51.366;12.350;2023-05-12T01:56:43;100303.81;;;13.69;78.72
66681;BME280;53575;51.366;12.350;2023-05-12T01:59:09;100304.53;;;13.79;77.99
66681;BME280;53575;51.366;12.350;2023-05-12T02:01:34;100301.13;;;13.72;78.33
66681;BME280;53575;51.366;12.350;2023-05-12T02:04:01;100300.47;;;13.62;79.61
66681;BME280;53575;51.366;12.350;2023-05-12T02:06:27;100301.41;;;13.58;79.79
66681;BME280;53575;51.366;12.350;2023-05-12T02:08:53;100307.38;;;13.67;78.32
66681;BME280;53575;51.366;12.350;2023-05-12T02:11:18;100302.25;;;13.60;79.34
66681;BME280;53575;51.366;12.350;2023-05-12T02:13:44;100301.38;;;13.60;81.65
66681;BME280;53575;51.366;12.350;2023-05-12T02:16:10;100305.91;;;13.50;81.70
66681;BME280;53575;51.366;12.350;2023-05-12T02:18:35;100298.44;;;13.29;83.27
66681;BME280;53575;51.366;12.350;2023-05-12T02:21:01;100306.81;;;13.49;81.76
66681;BME280;53575;51.366;12.350;2023-05-12T02:23:26;100307.88;;;13.40;80.99
66681;BME280;53575;51.366;12.350;2023-05-12T02:25:52;100307.28;;;13.25;81.92
66681;BME280;53575;51.366;12.350;2023-05-12T02:28:17;100305.81;;;13.05;82.72
66681;BME280;53575;51.366;12.350;2023-05-12T02:30:46;100308.44;;;13.05;83.93
66681;BME280;53575;51.366;12.350;2023-05-12T02:33:16;100310.94;;;13.11;83.74
66681;BME280;53575;51.366;12.350;2023-05-12T02:35:43;100305.16;;;12.91;83.42
66681;BME280;53575;51.366;12.350;2023-05-12T02:38:09;100305.94;;;12.96;84.41
66681;BME280;53575;51.366;12.350;2023-05-12T02:40:34;100298.13;;;12.93;85.53
66681;BME280;53575;51.366;12.350;2023-05-12T02:43:00;100301.63;;;12.92;87.12
66681;BME280;53575;51.366;12.350;2023-05-12T02:45:25;100302.38;;;13.00;85.88
66681;BME280;53575;51.366;12.350;2023-05-12T02:47:51;100304.06;;;13.04;84.10
66681;BME280;53575;51.366;12.350;2023-05-12T02:50:16;100308.38;;;13.08;85.06
66681;BME280;53575;51.366;12.350;2023-05-12T02:52:42;100305.59;;;13.17;85.03
66681;BME280;53575;51.366;12.350;2023-05-12T02:55:07;100302.13;;;13.15;82.26
66681;BME280;53575;51.366;12.350;2023-05-12T02:57:33;100301.31;;;13.13;82.50
66681;BME280;53575;51.366;12.350;2023-05-12T02:59:59;100306.69;;;13.04;80.91
66681;BME280;53575;51.366;12.350;2023-05-12T03:02:25;100300.31;;;13.19;79.36
66681;BME280;53575;51.366;12.350;2023-05-12T03:04:51;100292.44;;;13.21;79.40
66681;BME280;53575;51.366;12.350;2023-05-12T03:07:16;100290.03;;;13.07;79.45
66681;BME280;53575;51.366;12.350;2023-05-12T03:09:42;100295.69;;;13.35;78.70
66681;BME280;53575;51.366;12.350;2023-05-12T03:12:08;100298.41;;;13.30;78.49
66681;BME280;53575;51.366;12.350;2023-05-12T03:14:33;100291.69;;;13.12;80.00
66681;BME280;53575;51.366;12.350;2023-05-12T03:16:58;100301.34;;;13.10;80.39
66681;BME280;53575;51.366;12.350;2023-05-12T03:19:24;100293.66;;;13.01;82.70
66681;BME280;53575;51.366;12.350;2023-05-12T03:21:49;100290.00;;;13.10;80.39
66681;BME280;53575;51.366;12.350;2023-05-12T03:24:15;100295.88;;;13.26;78.23
66681;BME280;53575;51.366;12.350;2023-05-12T03:26:40;100295.69;;;13.36;78.24
66681;BME280;53575;51.366;12.350;2023-05-12T03:29:06;100292.38;;;13.25;78.91
66681;BME280;53575;51.366;12.350;2023-05-12T03:31:32;100298.28;;;13.38;77.94
66681;BME280;53575;51.366;12.350;2023-05-12T03:33:57;100293.88;;;13.40;77.69
66681;BME280;53575;51.366;12.350;2023-05-12T03:36:23;100301.84;;;13.34;77.57
66681;BME280;53575;51.366;12.350;2023-05-12T03:38:48;100313.34;;;13.27;79.23
66681;BME280;53575;51.366;12.350;2023-05-12T03:41:13;100303.81;;;13.20;81.41
66681;BME280;53575;51.366;12.350;2023-05-12T03:43:40;100301.34;;;13.10;81.70
66681;BME280;53575;51.366;12.350;2023-05-12T03:46:06;100298.84;;;13.03;81.32
66681;BME280;53575;51.366;12.350;2023-05-12T03:48:32;100300.56;;;13.04;82.40
66681;BME280;53575;51.366;12.350;2023-05-12T03:50:57;100306.69;;;13.04;81.01
66681;BME280;53575;51.366;12.350;2023-05-12T03:53:23;100294.22;;;13.18;82.76
66681;BME280;53575;51.366;12.350;2023-05-12T03:55:48;100295.88;;;13.26;81.68
66681;BME280;53575;51.366;12.350;2023-05-12T03:58:13;100303.03;;;13.14;82.05
66681;BME280;53575;51.366;12.350;2023-05-12T04:00:39;100295.88;;;13.26;81.85
66681;BME280;53575;51.366;12.350;2023-05-12T04:03:05;100299.41;;;13.20;81.81
66681;BME280;53575;51.366;12.350;2023-05-12T04:05:30;100304.66;;;13.22;80.13
66681;BME280;53575;51.366;12.350;2023-05-12T04:07:55;100297.63;;;13.24;82.50
66681;BME280;53575;51.366;12.350;2023-05-12T04:10:21;100296.88;;;13.17;80.28
66681;BME280;53575;51.366;12.350;2023-05-12T04:12:46;100304.66;;;13.22;81.54
66681;BME280;53575;51.366;12.350;2023-05-12T04:15:12;100301.22;;;13.18;78.59
66681;BME280;53575;51.366;12.350;2023-05-12T04:17:39;100303.69;;;13.29;80.13
66681;BME280;53575;51.366;12.350;2023-05-12T04:20:06;100304.34;;;13.41;78.91
66681;BME280;53575;51.366;12.350;2023-05-12T04:22:32;100301.34;;;13.61;75.79
66681;BME280;53575;51.366;12.350;2023-05-12T04:24:57;100303.97;;;13.61;75.82
66681;BME280;53575;51.366;12.350;2023-05-12T04:27:23;100292.31;;;13.76;74.48
66681;BME280;53575;51.366;12.350;2023-05-12T04:29:48;100295.78;;;13.78;74.14
66681;BME280;53575;51.366;12.350;2023-05-12T04:32:13;100301.59;;;13.93;73.17
66681;BME280;53575;51.366;12.350;2023-05-12T04:34:39;100305.94;;;13.95;73.31
66681;BME280;53575;51.366;12.350;2023-05-12T04:37:04;100298.00;;;13.98;72.74
66681;BME280;53575;51.366;12.350;2023-05-12T04:39:30;100306.53;;;14.09;71.99
66681;BME280;53575;51.366;12.350;2023-05-12T04:41:55;100312.59;;;14.13;71.99
66681;BME280;53575;51.366;12.350;2023-05-12T04:44:20;100317.97;;;14.07;73.19
66681;BME280;53575;51.366;12.350;2023-05-12T04:46:46;100321.28;;;14.15;71.99
66681;BME280;53575;51.366;12.350;2023-05-12T04:49:12;100313.47;;;14.13;72.02
66681;BME280;53575;51.366;12.350;2023-05-12T04:51:37;100316.78;;;14.23;71.86
66681;BME280;53575;51.366;12.350;2023-05-12T04:54:08;100313.19;;;14.26;71.51
66681;BME280;53575;51.366;12.350;2023-05-12T04:56:34;100318.56;;;14.21;72.04
66681;BME280;53575;51.366;12.350;2023-05-12T04:59:00;100321.13;;;14.23;72.14
66681;BME280;53575;51.366;12.350;2023-05-12T05:01:25;100323.00;;;14.18;72.30
66681;BME280;53575;51.366;12.350;2023-05-12T05:03:51;100323.75;;;14.24;71.57
66681;BME280;53575;51.366;12.350;2023-05-12T05:06:16;100327.13;;;14.31;71.67
66681;BME280;53575;51.366;12.350;2023-05-12T05:08:41;100327.88;;;14.36;71.27
66681;BME280;53575;51.366;12.350;2023-05-12T05:11:07;100327.59;;;14.48;70.68
66681;BME280;53575;51.366;12.350;2023-05-12T05:13:32;100328.47;;;14.49;71.08
66681;BME280;53575;51.366;12.350;2023-05-12T05:15:58;100328.31;;;14.58;70.51
66681;BME280;53575;51.366;12.350;2023-05-12T05:18:23;100330.22;;;14.51;70.71
66681;BME280;53575;51.366;12.350;2023-05-12T05:20:49;100332.78;;;14.53;70.62
66681;BME280;53575;51.366;12.350;2023-05-12T05:23:14;100336.97;;;14.63;70.19
66681;BME280;53575;51.366;12.350;2023-05-12T05:25:40;100342.63;;;14.43;71.47
66681;BME280;53575;51.366;12.350;2023-05-12T05:28:05;100345.66;;;14.67;70.50
66681;BME280;53575;51.366;12.350;2023-05-12T05:30:31;100353.44;;;14.71;70.33
66681;BME280;53575;51.366;12.350;2023-05-12T05:32:56;100348.03;;;14.77;70.42
66681;BME280;53575;51.366;12.350;2023-05-12T05:35:22;100341.81;;;14.80;70.10
66681;BME280;53575;51.366;12.350;2023-05-12T05:37:47;100347.94;;;14.82;69.41
66681;BME280;53575;51.366;12.350;2023-05-12T05:40:14;100352.09;;;14.91;69.52
66681;BME280;53575;51.366;12.350;2023-05-12T05:42:40;100345.06;;;14.93;68.99
66681;BME280;53575;51.366;12.350;2023-05-12T05:45:06;100353.63;;;15.01;68.76
66681;BME280;53575;51.366;12.350;2023-05-12T05:47:31;100355.28;;;15.05;68.84
66681;BME280;53575;51.366;12.350;2023-05-12T05:49:58;100355.84;;;15.18;68.23
66681;BME280;53575;51.366;12.350;2023-05-12T05:52:23;100354.97;;;15.19;68.13
66681;BME280;53575;51.366;12.350;2023-05-12T05:54:49;100347.81;;;15.24;67.34
66681;BME280;53575;51.366;12.350;2023-05-12T05:57:14;100353.69;;;15.33;66.99
66681;BME280;53575;51.366;12.350;2023-05-12T05:59:40;100354.41;;;15.40;67.01
66681;BME280;53575;51.366;12.350;2023-05-12T06:02:05;100354.94;;;15.53;66.02
66681;BME280;53575;51.366;12.350;2023-05-12T06:04:31;100352.16;;;15.59;65.89
66681;BME280;53575;51.366;12.350;2023-05-12T06:06:56;100359.53;;;15.46;67.37
66681;BME280;53575;51.366;12.350;2023-05-12T06:09:22;100359.13;;;15.62;66.10
66681;BME280;53575;51.366;12.350;2023-05-12T06:11:47;100355.94;;;15.84;65.20
66681;BME280;53575;51.366;12.350;2023-05-12T06:14:12;100359.69;;;15.76;66.70
66681;BME280;53575;51.366;12.350;2023-05-12T06:16:38;100365.41;;;15.92;65.31
66681;BME280;53575;51.366;12.350;2023-05-12T06:19:03;100364.44;;;15.94;65.50
66681;BME280;53575;51.366;12.350;2023-05-12T06:21:29;100358.84;;;16.06;64.53
66681;BME280;53575;51.366;12.350;2023-05-12T06:23:54;100363.91;;;16.14;64.59
66681;BME280;53575;51.366;12.350;2023-05-12T06:26:21;100367.19;;;16.21;64.61
66681;BME280;53575;51.366;12.350;2023-05-12T06:28:46;100375.59;;;16.35;64.10
66681;BME280;53575;51.366;12.350;2023-05-12T06:31:12;100375.66;;;16.32;63.03
66681;BME280;53575;51.366;12.350;2023-05-12T06:33:37;100377.41;;;16.33;62.33
66681;BME280;53575;51.366;12.350;2023-05-12T06:36:03;100378.28;;;16.33;61.94
66681;BME280;53575;51.366;12.350;2023-05-12T06:38:29;100373.94;;;16.31;61.83
66681;BME280;53575;51.366;12.350;2023-05-12T06:40:55;100384.19;;;16.42;61.88
66681;BME280;53575;51.366;12.350;2023-05-12T06:43:21;100387.88;;;16.66;61.16
66681;BME280;53575;51.366;12.350;2023-05-12T06:45:47;100383.53;;;16.63;61.41
66681;BME280;53575;51.366;12.350;2023-05-12T06:48:12;100381.47;;;16.74;61.79
66681;BME280;53575;51.366;12.350;2023-05-12T06:50:38;100386.84;;;16.71;62.68
66681;BME280;53575;51.366;12.350;2023-05-12T06:53:03;100391.19;;;16.74;62.16
66681;BME280;53575;51.366;12.350;2023-05-12T06:55:30;100389.31;;;16.77;62.14
66681;BME280;53575;51.366;12.350;2023-05-12T06:57:55;100375.94;;;16.84;62.74
66681;BME280;53575;51.366;12.350;2023-05-12T07:00:22;100383.88;;;16.82;63.64
66681;BME280;53575;51.366;12.350;2023-05-12T07:02:48;100382.22;;;16.79;65.07
66681;BME280;53575;51.366;12.350;2023-05-12T07:05:13;100385.53;;;16.86;63.83
66681;BME280;53575;51.366;12.350;2023-05-12T07:07:39;100381.63;;;16.98;63.94
66681;BME280;53575;51.366;12.350;2023-05-12T07:10:05;100383.84;;;17.12;63.32
66681;BME280;53575;51.366;12.350;2023-05-12T07:12:31;100380.28;;;17.13;62.76
66681;BME280;53575;51.366;12.350;2023-05-12T07:14:57;100379.00;;;17.26;61.60
66681;BME280;53575;51.366;12.350;2023-05-12T07:17:22;100376.13;;;17.32;60.87
66681;BME280;53575;51.366;12.350;2023-05-12T07:19:48;100378.44;;;17.43;58.78
66681;BME280;53575;51.366;12.350;2023-05-12T07:22:13;100377.97;;;17.57;55.30
66681;BME280;53575;51.366;12.350;2023-05-12T07:24:39;100369.34;;;17.51;53.36
66681;BME280;53575;51.366;12.350;2023-05-12T07:27:05;100371.00;;;17.54;53.22
66681;BME280;53575;51.366;12.350;2023-05-12T07:29:32;100371.72;;;17.59;53.62
66681;BME280;53575;51.366;12.350;2023-05-12T07:31:58;100374.41;;;17.58;53.86
66681;BME280;53575;51.366;12.350;2023-05-12T07:34:24;100362.91;;;17.59;54.44
66681;BME280;53575;51.366;12.350;2023-05-12T07:36:50;100358.78;;;17.51;56.41
66681;BME280;53575;51.366;12.350;2023-05-12T07:39:15;100364.78;;;17.55;56.05
66681;BME280;53575;51.366;12.350;2023-05-12T07:41:47;100363.56;;;17.65;56.34
66681;BME280;53575;51.366;12.350;2023-05-12T07:44:13;100365.25;;;17.68;55.40
66681;BME280;53575;51.366;12.350;2023-05-12T07:46:38;100372.94;;;17.75;53.78
66681;BME280;53575;51.366;12.350;2023-05-12T07:49:04;100375.59;;;17.74;52.98
66681;BME280;53575;51.366;12.350;2023-05-12T07:51:30;100370.91;;;17.84;51.96
66681;BME280;53575;51.366;12.350;2023-05-12T07:53:56;100375.22;;;17.86;52.29
66681;BME280;53575;51.366;12.350;2023-05-12T07:56:22;100376.13;;;17.85;51.70
66681;BME280;53575;51.366;12.350;2023-05-12T07:58:47;100376.84;;;17.90;51.67
66681;BME280;53575;51.366;12.350;2023-05-12T08:01:13;100378.38;;;17.96;51.55
66681;BME280;53575;51.366;12.350;2023-05-12T08:03:38;100372.72;;;18.07;51.40
66681;BME280;53575;51.366;12.350;2023-05-12T08:06:04;100370.91;;;18.09;50.78
66681;BME280;53575;51.366;12.350;2023-05-12T08:08:32;100366.22;;;18.15;50.52
66681;BME280;53575;51.366;12.350;2023-05-12T08:10:57;100369.53;;;18.22;50.49
66681;BME280;53575;51.366;12.350;2023-05-12T08:13:23;100371.50;;;18.17;49.14
66681;BME280;53575;51.366;12.350;2023-05-12T08:15:48;100370.38;;;18.22;49.81
66681;BME280;53575;51.366;12.350;2023-05-12T08:18:14;100372.72;;;18.32;49.88
66681;BME280;53575;51.366;12.350;2023-05-12T08:20:40;100376.69;;;18.43;49.50
66681;BME280;53575;51.366;12.350;2023-05-12T08:23:05;100382.66;;;18.48;49.12
66681;BME280;53575;51.366;12.350;2023-05-12T08:25:31;100381.03;;;18.44;49.78
66681;BME280;53575;51.366;12.350;2023-05-12T08:27:59;100381.81;;;18.46;50.04
66681;BME280;53575;51.366;12.350;2023-05-12T08:30:25;100385.69;;;18.61;47.93
66681;BME280;53575;51.366;12.350;2023-05-12T08:32:51;100387.19;;;18.68;46.96
66681;BME280;53575;51.366;12.350;2023-05-12T08:35:17;100386.25;;;18.69;47.54
66681;BME280;53575;51.366;12.350;2023-05-12T08:37:43;100383.66;;;18.68;49.59
66681;BME280;53575;51.366;12.350;2023-05-12T08:40:14;100382.06;;;18.87;47.53
66681;BME280;53575;51.366;12.350;2023-05-12T08:42:54;100386.00;;;18.99;48.71
66681;BME280;53575;51.366;12.350;2023-05-12T08:45:24;100388.47;;;19.04;48.50
66681;BME280;53575;51.366;12.350;2023-05-12T08:47:50;100390.66;;;19.16;48.42
66681;BME280;53575;51.366;12.350;2023-05-12T08:50:20;100390.47;;;19.20;47.99
66681;BME280;53575;51.366;12.350;2023-05-12T08:52:47;100387.63;;;19.25;47.43
66681;BME280;53575;51.366;12.350;2023-05-12T08:55:13;100391.19;;;19.24;47.22
66681;BME280;53575;51.366;12.350;2023-05-12T08:57:39;100390.75;;;19.35;45.25
66681;BME280;53575;51.366;12.350;2023-05-12T09:00:10;100394.19;;;19.37;45.01
66681;BME280;53575;51.366;12.350;2023-05-12T09:02:38;100393.03;;;19.44;45.09
66681;BME280;53575;51.366;12.350;2023-05-12T09:05:08;100392.31;;;19.61;44.04
66681;BME280;53575;51.366;12.350;2023-05-12T09:07:35;100388.88;;;19.59;44.16
66681;BME280;53575;51.366;12.350;2023-05-12T09:10:02;100387.00;;;19.62;44.53
66681;BME280;53575;51.366;12.350;2023-05-12T09:12:30;100387.59;;;19.69;44.77
66681;BME280;53575;51.366;12.350;2023-05-12T09:15:04;100387.94;;;19.82;45.13
66681;BME280;53575;51.366;12.350;2023-05-12T09:17:32;100379.88;;;19.83;45.35
66681;BME280;53575;51.366;12.350;2023-05-12T09:19:58;100378.91;;;19.86;43.05
66681;BME280;53575;51.366;12.350;2023-05-12T09:22:32;100381.00;;;19.98;43.78
66681;BME280;53575;51.366;12.350;2023-05-12T09:24:59;100389.38;;;20.09;44.49
66681;BME280;53575;51.366;12.350;2023-05-12T09:27:28;100384.44;;;20.20;44.48
66681;BME280;53575;51.366;12.350;2023-05-12T09:29:54;100379.59;;;20.30;41.69
66681;BME280;53575;51.366;12.350;2023-05-12T09:32:34;100378.53;;;20.34;42.93
66681;BME280;53575;51.366;12.350;2023-05-12T09:35:07;100380.50;;;20.50;42.91
66681;BME280;53575;51.366;12.350;2023-05-12T09:37:35;100380.16;;;20.57;42.99
66681;BME280;53575;51.366;12.350;2023-05-12T09:40:02;100379.56;;;20.69;41.39
66681;BME280;53575;51.366;12.350;2023-05-12T09:42:30;100382.81;;;20.76;40.16
66681;BME280;53575;51.366;12.350;2023-05-12T09:45:14;100382.28;;;20.87;40.08
66681;BME280;53575;51.366;12.350;2023-05-12T09:47:39;100385.28;;;20.98;39.45
66681;BME280;53575;51.366;12.350;2023-05-12T09:50:06;100381.13;;;20.92;39.14
66681;BME280;53575;51.366;12.350;2023-05-12T09:52:36;100376.47;;;20.98;37.70
66681;BME280;53575;51.366;12.350;2023-05-12T09:55:07;100375.59;;;20.97;38.14
66681;BME280;53575;51.366;12.350;2023-05-12T09:57:37;100376.97;;;20.87;38.40
66681;BME280;53575;51.366;12.350;2023-05-12T10:00:06;100366.72;;;20.79;38.67
66681;BME280;53575;51.366;12.350;2023-05-12T10:02:33;100363.41;;;20.74;39.05
66681;BME280;53575;51.366;12.350;2023-05-12T10:05:01;100367.50;;;20.81;39.63
66681;BME280;53575;51.366;12.350;2023-05-12T10:07:31;100369.19;;;21.01;41.36
66681;BME280;53575;51.366;12.350;2023-05-12T10:09:58;100375.56;;;21.16;40.45
66681;BME280;53575;51.366;12.350;2023-05-12T10:12:25;100373.84;;;21.34;39.10
66681;BME280;53575;51.366;12.350;2023-05-12T10:14:50;100375.88;;;21.46;38.91
66681;BME280;53575;51.366;12.350;2023-05-12T10:17:18;100369.56;;;21.49;38.68
66681;BME280;53575;51.366;12.350;2023-05-12T10:19:44;100372.81;;;21.36;38.68
66681;BME280;53575;51.366;12.350;2023-05-12T10:22:11;100372.28;;;21.47;38.95
66681;BME280;53575;51.366;12.350;2023-05-12T10:24:40;100373.31;;;21.62;39.23
66681;BME280;53575;51.366;12.350;2023-05-12T10:27:06;100368.31;;;21.73;39.24
66681;BME280;53575;51.366;12.350;2023-05-12T10:29:31;100361.56;;;21.66;38.50
66681;BME280;53575;51.366;12.350;2023-05-12T10:31:58;100367.84;;;21.65;38.60
66681;BME280;53575;51.366;12.350;2023-05-12T10:34:38;100368.16;;;21.76;38.39
66681;BME280;53575;51.366;12.350;2023-05-12T10:37:08;100363.94;;;21.72;38.87
66681;BME280;53575;51.366;12.350;2023-05-12T10:39:35;100365.38;;;21.95;38.78
66681;BME280;53575;51.366;12.350;2023-05-12T10:42:06;100356.75;;;22.07;37.56
66681;BME280;53575;51.366;12.350;2023-05-12T10:44:33;100357.22;;;22.16;37.16
66681;BME280;53575;51.366;12.350;2023-05-12T10:46:58;100356.41;;;22.31;37.00
66681;BME280;53575;51.366;12.350;2023-05-12T10:49:38;100359.34;;;22.42;37.50
66681;BME280;53575;51.366;12.350;2023-05-12T10:52:04;100358.66;;;22.38;36.50
66681;BME280;53575;51.366;12.350;2023-05-12T10:54:36;100358.34;;;22.45;36.69
66681;BME280;53575;51.366;12.350;2023-05-12T10:57:14;100356.22;;;22.67;36.40
66681;BME280;53575;51.366;12.350;2023-05-12T10:59:56;100362.47;;;22.66;36.91
66681;BME280;53575;51.366;12.350;2023-05-12T11:02:23;100358.94;;;22.81;36.40
66681;BME280;53575;51.366;12.350;2023-05-12T11:05:02;100360.25;;;23.06;35.27
66681;BME280;53575;51.366;12.350;2023-05-12T11:07:30;100356.91;;;22.86;34.42
66681;BME280;53575;51.366;12.350;2023-05-12T11:09:58;100358.72;;;22.86;34.95
66681;BME280;53575;51.366;12.350;2023-05-12T11:12:26;100357.34;;;22.95;34.06
66681;BME280;53575;51.366;12.350;2023-05-12T11:14:52;100357.19;;;22.98;33.80
66681;BME280;53575;51.366;12.350;2023-05-12T11:17:17;100356.97;;;23.01;34.41
66681;BME280;53575;51.366;12.350;2023-05-12T11:19:48;100365.06;;;23.15;34.20
66681;BME280;53575;51.366;12.350;2023-05-12T11:22:19;100352.50;;;23.17;33.93
66681;BME280;53575;51.366;12.350;2023-05-12T11:24:45;100354.72;;;23.25;35.37
66681;BME280;53575;51.366;12.350;2023-05-12T11:27:15;100354.34;;;23.47;34.27
66681;BME280;53575;51.366;12.350;2023-05-12T11:29:42;100353.94;;;23.69;34.21
66681;BME280;53575;51.366;12.350;2023-05-12T11:32:08;100350.13;;;23.73;33.95
66681;BME280;53575;51.366;12.350;2023-05-12T11:34:35;100353.72;;;24.02;34.86
66681;BME280;53575;51.366;12.350;2023-05-12T11:37:02;100350.19;;;24.16;33.55
66681;BME280;53575;51.366;12.350;2023-05-12T11:39:29;100357.31;;;23.87;31.74
66681;BME280;53575;51.366;12.350;2023-05-12T11:42:05;100355.88;;;23.65;33.14
66681;BME280;53575;51.366;12.350;2023-05-12T11:44:31;100359.69;;;23.47;32.10
66681;BME280;53575;51.366;12.350;2023-05-12T11:49:29;100355.41;;;24.03;31.77
66681;BME280;53575;51.366;12.350;2023-05-12T11:52:00;100353.91;;;24.27;33.29
66681;BME280;53575;51.366;12.350;2023-05-12T11:54:29;100359.44;;;24.53;31.60
66681;BME280;53575;51.366;12.350;2023-05-12T11:56:56;100348.03;;;24.92;30.35
66681;BME280;53575;51.366;12.350;2023-05-12T11:59:30;100349.50;;;25.11;30.26
66681;BME280;53575;51.366;12.350;2023-05-12T12:01:57;100353.06;;;24.97;32.03
66681;BME280;53575;51.366;12.350;2023-05-12T12:04:39;100351.25;;;24.97;30.15
66681;BME280;53575;51.366;12.350;2023-05-12T12:07:06;100344.81;;;25.14;30.20
66681;BME280;53575;51.366;12.350;2023-05-12T12:09:40;100352.41;;;25.60;29.78
66681;BME280;53575;51.366;12.350;2023-05-12T12:12:07;100349.13;;;25.69;30.19
66681;BME280;53575;51.366;12.350;2023-05-12T12:14:34;100347.28;;;25.57;29.89
66681;BME280;53575;51.366;12.350;2023-05-12T12:17:00;100355.56;;;25.27;30.39
66681;BME280;53575;51.366;12.350;2023-05-12T12:19:26;100358.22;;;25.27;31.16
66681;BME280;53575;51.366;12.350;2023-05-12T12:21:53;100354.31;;;24.91;30.03
66681;BME280;53575;51.366;12.350;2023-05-12T12:24:18;100351.28;;;24.83;30.19
66681;BME280;53575;51.366;12.350;2023-05-12T12:26:44;100357.09;;;24.90;30.40
66681;BME280;53575;51.366;12.350;2023-05-12T12:29:09;100355.25;;;24.90;29.87
66681;BME280;53575;51.366;12.350;2023-05-12T12:31:35;100355.69;;;24.84;30.43
66681;BME280;53575;51.366;12.350;2023-05-12T12:34:01;100356.53;;;24.85;31.23
66681;BME280;53575;51.366;12.350;2023-05-12T12:36:27;100360.47;;;24.65;31.51
66681;BME280;53575;51.366;12.350;2023-05-12T12:38:52;100360.47;;;24.65;30.71
66681;BME280;53575;51.366;12.350;2023-05-12T12:41:18;100355.53;;;24.59;30.38